Mount Victory, Ohio
Current Conditions -  °F | °C
As of 1:30 AM on Wednesday 28 Jan 2015 (Local Time) from KEDJ Reporting Station
Clear Clear  
Wind Chill:   Ceiling: Unl
Heat Index:   Visibility: 5mi
Dew Point:   Wind: 0mph
Humidity: 85%   Direction: NA
Pressure: 30.22"   Gusts: NA
Location:  40.53°N, 83.52°W
Report Text: KEDJ 280630Z AUTO 00000KT 5SM CLR M15/M17 A3022 RMK AO1
Loading
Personal Weather Stations






























Interactive Weather Map New forecast layout! Learn more

10-Day Weather Forecast

Advertisements
Track Severe Weather on mobile